METAR Data
IDs: Format: Raw Decoded Include TAF

Data at: 0555 UTC 19 Aug 2019

KFLP 190456Z AUTO 17004KT 10SM SCT110 26/23 A2998 RMK AO2 SLP142 T02610233
KFLP 190356Z AUTO 00000KT 9SM OVC120 27/24 A2997 RMK AO2 SLP139 T02670244
KFLP 190256Z AUTO 00000KT 10SM CLR 28/25 A2996 RMK AO2 SLP136 T02780250 53025
KFLP 190156Z AUTO 12003KT 10SM CLR 28/25 A2993 RMK AO2 SLP127 T02780250
KFLP 190056Z AUTO 00000KT 10SM CLR 29/25 A2991 RMK AO2 SLP120 T02940250
KFLP 182356Z AUTO 00000KT 10SM CLR 32/26 A2988 RMK AO2 SLP110 60018 T03170256 10350 20261 52007
KFLP 182256Z AUTO 00000KT 10SM CLR 33/25 A2987 RMK AO2 SLP106 T03280250
KFLP 182156Z AUTO 04003KT 10SM CLR 33/26 A2987 RMK AO2 SLP105 T03280261
KFLP 182056Z AUTO 00000KT 10SM CLR 29/26 A2986 RMK AO2 SLP103 60018 T02940256 58017
KFLP 181956Z AUTO 00000KT 10SM CLR 28/24 A2988 RMK AO2 TSE27RAE14 SLP111 P0000 T02780244
KFLP 181933Z AUTO 00000KT 10SM FEW011 SCT100 27/25 A2990 RMK AO2 LTG DSNT SE TSE27RAE14 P0000
KFLP 181856Z AUTO 35006G20KT 4SM +TSRA FEW016 SCT036 BKN044 26/21 A2993 RMK AO2 LTG DSNT SE AND S TSB14RAB43 SLP125 P0018 T02610211
KFLP 181820Z AUTO 24009KT 10SM TS CLR 34/24 A2991 RMK AO2 LTG DSNT S-NW TSB14
KFLP 181756Z AUTO VRB04KT 10SM FEW038 34/24 A2991 RMK AO2 LTG DSNT W AND NW SLP119 T03390244 10339 20239 58007
KFLP 181656Z AUTO VRB03KT 10SM CLR 32/23 A2995 RMK AO2 SLP131 T03220233
KFLP 181556Z AUTO VRB04KT 9SM CLR 31/23 A2996 RMK AO2 SLP135 T03060233
KFLP 181456Z AUTO VRB03KT 10SM CLR 28/22 A2994 RMK AO2 SLP129 T02830222 50007
KFLP 181356Z AUTO 02003KT 8SM FEW046 SCT065 BKN100 27/23 A2994 RMK AO2 SLP130 T02720228
KFLP 181256Z AUTO 36004KT 10SM CLR 25/22 A2993 RMK AO2 SLP128 T02500222
KFLP 181156Z AUTO 00000KT 10SM CLR 24/22 A2991 RMK AO2 SLP121 T02390217 10272 20239 51011
KFLP 181056Z AUTO 21004KT 10SM CLR 24/22 A2991 RMK AO2 SLP118 T02440217
KFLP 180956Z AUTO 00000KT 10SM CLR 24/22 A2990 RMK AO2 SLP114 T02440217
KFLP 180856Z AUTO VRB03KT 10SM CLR 26/22 A2988 RMK AO2 SLP108 T02560217 58006
KFLP 180756Z AUTO VRB03KT 10SM CLR 26/22 A2989 RMK AO2 SLP112 T02560217
KFLP 180656Z AUTO 00000KT 10SM CLR 26/22 A2989 RMK AO2 SLP112 T02610217
KFLP 180556Z AUTO VRB05KT 10SM CLR 27/22 A2990 RMK AO2 SLP114 T02720217 10317 20272 403390206 50002
KFLP 180456Z AUTO 17006KT 10SM CLR 27/22 A2991 RMK AO2 SLP118 T02720222
KFLP 180356Z AUTO 00000KT 10SM CLR 28/23 A2990 RMK AO2 SLP118 T02780228
KFLP 180256Z AUTO 17004KT 10SM CLR 28/23 A2989 RMK AO2 SLP114 T02830228 53009
KFLP 180156Z AUTO VRB04KT 10SM CLR 29/23 A2987 RMK AO2 SLP108 T02890228
KFLP 180056Z AUTO 15003KT 10SM CLR 29/22 A2987 RMK AO2 SLP104 T02940222
KFLP 172356Z AUTO 16005KT 10SM CLR 32/22 A2986 RMK AO2 SLP103 T03170217 10339 20317 58010
KFLP 172256Z AUTO VRB06KT 10SM CLR 33/22 A2988 RMK AO2 SLP109 T03280222
KFLP 172156Z AUTO VRB04KT 10SM CLR 34/22 A2988 RMK AO2 SLP111 T03390222
KFLP 172056Z AUTO VRB04KT 10SM CLR 34/22 A2989 RMK AO2 SLP113 T03390222 56020
KFLP 171956Z AUTO 08004KT 10SM CLR 33/23 A2991 RMK AO2 SLP119 T03280233
KFLP 171856Z AUTO 11005KT 10SM CLR 33/23 A2992 RMK AO2 SLP124 T03280233
KFLP 171756Z AUTO VRB04KT 10SM FEW039 32/23 A2996 RMK AO2 SLP135 T03220233 10322 20206 58004